Time,TemperatureF,DewpointF,PressureIn,WindDirection,WindDirectionDegrees,WindSpeedMPH,WindSpeedGustMPH,Humidity,HourlyPrecipIn,Conditions,Clouds,dailyrainin,SoftwareType,DateUTC
2013-02-23 00:00:00,43.1,42.6,30.03,SSW,210,2.0,6.0,98,0.00,,,0.12,Wunderground v.1.15,2013-02-23 05:00:00,
2013-02-23 00:01:00,43.1,42.6,30.03,SSW,210,1.0,3.0,98,0.00,,,0.12,Wunderground v.1.15,2013-02-23 05:01:00,
2013-02-23 00:06:00,43.1,42.6,30.03,SSW,210,0.0,4.0,98,0.00,,,0.12,Wunderground v.1.15,2013-02-23 05:06:00,
2013-02-23 00:12:00,43.2,42.9,30.07,WSW,258,0.0,3.0,99,0.00,,,0.00,Wunderground v.1.15,2013-02-23 05:12:00,
2013-02-23 00:18:00,43.2,42.9,30.07,West,273,2.0,3.0,99,0.00,,,0.00,Wunderground v.1.15,2013-02-23 05:18:00,
2013-02-23 00:24:00,43.2,42.9,30.06,West,273,1.0,3.0,99,0.00,,,0.00,Wunderground v.1.15,2013-02-23 05:24:00,
2013-02-23 00:30:00,43.2,42.9,30.06,West,273,0.0,1.0,99,0.00,,,0.00,Wunderground v.1.15,2013-02-23 05:30:00,
2013-02-23 00:36:00,43.2,42.9,30.06,West,273,0.0,1.0,99,0.00,,,0.00,Wunderground v.1.15,2013-02-23 05:36:00,
2013-02-23 00:41:00,43.2,42.9,30.04,West,273,0.0,0.0,99,0.00,,,0.00,Wunderground v.1.15,2013-02-23 05:41:00,
2013-02-23 00:46:00,43.2,42.9,30.04,West,273,0.0,0.0,99,0.00,,,0.00,Wunderground v.1.15,2013-02-23 05:46:00,
2013-02-23 00:51:00,43.1,42.8,30.04,West,273,0.0,0.0,99,0.00,,,0.00,Wunderground v.1.15,2013-02-23 05:51:00,
2013-02-23 00:57:00,43.1,42.8,30.04,West,273,2.0,2.0,99,0.00,,,0.00,Wunderground v.1.15,2013-02-23 05:57:00,
2013-02-23 01:02:00,43.1,42.8,30.04,West,273,0.0,0.0,99,0.00,,,0.01,Wunderground v.1.15,2013-02-23 06:02:00,
2013-02-23 01:08:00,43.1,42.8,30.04,West,273,2.0,2.0,99,0.10,,,0.02,Wunderground v.1.15,2013-02-23 06:08:00,
2013-02-23 01:14:00,43.1,42.8,30.02,West,273,0.0,1.0,99,0.19,,,0.04,Wunderground v.1.15,2013-02-23 06:14:00,
2013-02-23 01:19:00,43.1,42.8,30.02,West,273,0.0,2.0,99,0.15,,,0.05,Wunderground v.1.15,2013-02-23 06:19:00,
2013-02-23 01:25:00,43.1,42.8,30.01,West,273,0.0,0.0,99,0.12,,,0.06,Wunderground v.1.15,2013-02-23 06:25:00,
2013-02-23 01:30:00,43.1,42.8,30.01,West,273,0.0,0.0,99,0.06,,,0.06,Wunderground v.1.15,2013-02-23 06:30:00,
2013-02-23 01:36:00,43.1,42.8,30.01,West,273,0.0,2.0,99,0.04,,,0.06,Wunderground v.1.15,2013-02-23 06:36:00,
2013-02-23 01:41:00,43.1,42.8,30.03,West,273,0.0,0.0,99,0.00,,,0.06,Wunderground v.1.15,2013-02-23 06:41:00,
2013-02-23 01:46:00,43.1,42.8,30.03,West,273,0.0,2.0,99,0.00,,,0.06,Wunderground v.1.15,2013-02-23 06:46:00,
2013-02-23 01:52:00,43.2,42.9,30.03,West,273,0.0,2.0,99,0.00,,,0.07,Wunderground v.1.15,2013-02-23 06:52:00,
2013-02-23 01:57:00,43.2,42.9,30.05,West,273,2.0,2.0,99,0.16,,,0.09,Wunderground v.1.15,2013-02-23 06:57:00,
2013-02-23 02:02:00,43.1,42.8,30.05,West,273,2.0,2.0,99,0.15,,,0.11,Wunderground v.1.15,2013-02-23 07:02:00,
2013-02-23 02:08:00,43.1,42.8,30.05,West,273,2.0,5.0,99,0.20,,,0.12,Wunderground v.1.15,2013-02-23 07:08:00,
2013-02-23 02:13:00,43.1,42.8,30.04,West,273,3.0,4.0,99,0.17,,,0.14,Wunderground v.1.15,2013-02-23 07:13:00,
2013-02-23 02:18:00,43.1,42.8,30.04,West,273,0.0,4.0,99,0.18,,,0.15,Wunderground v.1.15,2013-02-23 07:18:00,
2013-02-23 02:23:00,43.1,42.8,30.04,West,273,0.0,2.0,99,0.13,,,0.16,Wunderground v.1.15,2013-02-23 07:23:00,
2013-02-23 02:28:00,43.1,42.8,30.03,West,273,2.0,4.0,99,0.06,,,0.16,Wunderground v.1.15,2013-02-23 07:28:00,
2013-02-23 02:33:00,43.1,42.8,30.03,West,273,0.0,3.0,99,0.04,,,0.16,Wunderground v.1.15,2013-02-23 07:33:00,
2013-02-23 02:38:00,43.1,42.8,30.03,West,273,2.0,3.0,99,0.00,,,0.16,Wunderground v.1.15,2013-02-23 07:38:00,
2013-02-23 02:43:00,43.1,42.8,30.02,West,273,0.0,3.0,99,0.00,,,0.16,Wunderground v.1.15,2013-02-23 07:43:00,
2013-02-23 02:48:00,43.1,42.8,30.02,West,273,0.0,3.0,99,0.00,,,0.16,Wunderground v.1.15,2013-02-23 07:48:00,
2013-02-23 02:53:00,43.2,42.9,30.02,West,273,0.0,0.0,99,0.00,,,0.16,Wunderground v.1.15,2013-02-23 07:53:00,
2013-02-23 02:58:00,43.2,42.9,30.01,West,273,0.0,0.0,99,0.00,,,0.16,Wunderground v.1.15,2013-02-23 07:58:00,
2013-02-23 03:03:00,43.2,42.9,30.01,West,273,0.0,0.0,99,0.00,,,0.16,Wunderground v.1.15,2013-02-23 08:03:00,
2013-02-23 03:08:00,43.2,42.9,30.01,West,273,0.0,0.0,99,0.00,,,0.16,Wunderground v.1.15,2013-02-23 08:08:00,
2013-02-23 03:13:00,43.2,42.9,29.98,West,273,2.0,2.0,99,0.00,,,0.16,Wunderground v.1.15,2013-02-23 08:13:00,
2013-02-23 03:18:00,43.3,43.0,29.98,West,273,2.0,3.0,99,0.00,,,0.16,Wunderground v.1.15,2013-02-23 08:18:00,
2013-02-23 03:23:00,43.3,43.0,29.98,West,273,2.0,3.0,99,0.00,,,0.16,Wunderground v.1.15,2013-02-23 08:23:00,
2013-02-23 03:28:00,43.2,42.9,29.98,West,273,1.0,3.0,99,0.00,,,0.16,Wunderground v.1.15,2013-02-23 08:28:00,
2013-02-23 03:34:00,43.2,42.9,29.98,West,273,0.0,2.0,99,0.00,,,0.16,Wunderground v.1.15,2013-02-23 08:34:00,
2013-02-23 03:39:00,43.2,42.9,29.97,West,273,1.0,2.0,99,0.00,,,0.16,Wunderground v.1.15,2013-02-23 08:39:00,
2013-02-23 03:44:00,43.2,42.9,29.97,West,273,1.0,2.0,99,0.00,,,0.16,Wunderground v.1.15,2013-02-23 08:44:00,
2013-02-23 03:49:00,43.3,43.0,29.97,West,273,2.0,3.0,99,0.00,,,0.16,Wunderground v.1.15,2013-02-23 08:49:00,
2013-02-23 03:54:00,43.5,43.2,29.98,West,273,0.0,3.0,99,0.00,,,0.16,Wunderground v.1.15,2013-02-23 08:54:00,
2013-02-23 03:59:00,43.5,43.2,29.98,West,273,0.0,3.0,99,0.00,,,0.16,Wunderground v.1.15,2013-02-23 08:59:00,
2013-02-23 04:04:00,43.5,43.2,29.98,West,273,1.0,2.0,99,0.00,,,0.17,Wunderground v.1.15,2013-02-23 09:04:00,
2013-02-23 04:09:00,43.5,43.2,29.97,West,273,2.0,3.0,99,0.00,,,0.17,Wunderground v.1.15,2013-02-23 09:09:00,
2013-02-23 04:14:00,43.6,43.3,29.97,West,273,1.0,3.0,99,0.04,,,0.17,Wunderground v.1.15,2013-02-23 09:14:00,
2013-02-23 04:19:00,43.6,43.3,29.97,West,273,2.0,4.0,99,0.04,,,0.18,Wunderground v.1.15,2013-02-23 09:19:00,
2013-02-23 04:24:00,43.8,43.5,29.97,West,273,2.0,3.0,99,0.04,,,0.18,Wunderground v.1.15,2013-02-23 09:24:00,
2013-02-23 04:29:00,43.8,43.5,29.97,West,273,2.0,4.0,99,0.04,,,0.18,Wunderground v.1.15,2013-02-23 09:29:00,
2013-02-23 04:34:00,43.8,43.5,29.97,West,273,0.0,2.0,99,0.00,,,0.18,Wunderground v.1.15,2013-02-23 09:34:00,
2013-02-23 04:39:00,43.8,43.5,29.97,West,273,0.0,2.0,99,0.00,,,0.18,Wunderground v.1.15,2013-02-23 09:39:00,
2013-02-23 04:44:00,43.8,43.5,29.97,West,273,0.0,0.0,99,0.00,,,0.18,Wunderground v.1.15,2013-02-23 09:44:00,
2013-02-23 04:49:00,43.9,43.6,29.97,West,273,0.0,0.0,99,0.00,,,0.18,Wunderground v.1.15,2013-02-23 09:49:00,
2013-02-23 04:54:00,43.9,43.6,29.97,West,273,0.0,0.0,99,0.00,,,0.18,Wunderground v.1.15,2013-02-23 09:54:00,
2013-02-23 04:59:00,43.9,43.6,29.97,West,273,0.0,0.0,99,0.00,,,0.18,Wunderground v.1.15,2013-02-23 09:59:00,
2013-02-23 05:04:00,44.1,43.8,29.97,West,273,0.0,0.0,99,0.00,,,0.18,Wunderground v.1.15,2013-02-23 10:04:00,
2013-02-23 05:09:00,44.1,43.8,29.97,West,273,0.0,1.0,99,0.00,,,0.18,Wunderground v.1.15,2013-02-23 10:09:00,
2013-02-23 05:14:00,44.1,43.8,29.97,West,273,0.0,1.0,99,0.00,,,0.18,Wunderground v.1.15,2013-02-23 10:14:00,
2013-02-23 05:19:00,43.9,43.6,29.97,West,273,0.0,1.0,99,0.00,,,0.18,Wunderground v.1.15,2013-02-23 10:19:00,
2013-02-23 05:24:00,43.9,43.6,29.97,West,273,0.0,0.0,99,0.00,,,0.18,Wunderground v.1.15,2013-02-23 10:24:00,
2013-02-23 05:29:00,43.9,43.6,29.97,West,273,0.0,0.0,99,0.00,,,0.18,Wunderground v.1.15,2013-02-23 10:29:00,
2013-02-23 05:34:00,43.9,43.6,29.97,West,273,0.0,0.0,99,0.00,,,0.18,Wunderground v.1.15,2013-02-23 10:34:00,
2013-02-23 05:40:00,44.1,43.8,29.97,West,273,0.0,0.0,99,0.00,,,0.18,Wunderground v.1.15,2013-02-23 10:40:00,
2013-02-23 05:45:00,44.1,43.8,29.97,West,273,0.0,0.0,99,0.00,,,0.18,Wunderground v.1.15,2013-02-23 10:45:00,
2013-02-23 05:50:00,44.2,43.9,29.97,West,273,0.0,0.0,99,0.00,,,0.18,Wunderground v.1.15,2013-02-23 10:50:00,
2013-02-23 05:55:00,44.2,43.9,29.96,West,273,0.0,0.0,99,0.00,,,0.18,Wunderground v.1.15,2013-02-23 10:55:00,
2013-02-23 06:00:00,44.2,43.9,29.96,West,273,0.0,0.0,99,0.00,,,0.18,Wunderground v.1.15,2013-02-23 11:00:00,
2013-02-23 06:05:00,44.2,43.9,29.96,West,273,0.0,2.0,99,0.00,,,0.18,Wunderground v.1.15,2013-02-23 11:05:00,
2013-02-23 06:10:00,44.2,43.9,29.96,West,273,0.0,1.0,99,0.00,,,0.18,Wunderground v.1.15,2013-02-23 11:10:00,
2013-02-23 06:15:00,44.2,43.9,29.96,West,273,3.0,3.0,99,0.00,,,0.18,Wunderground v.1.15,2013-02-23 11:15:00,
2013-02-23 06:20:00,44.2,43.9,29.96,West,273,0.0,1.0,99,0.00,,,0.18,Wunderground v.1.15,2013-02-23 11:20:00,
2013-02-23 06:25:00,44.2,43.9,29.97,West,273,2.0,3.0,99,0.00,,,0.18,Wunderground v.1.15,2013-02-23 11:25:00,
2013-02-23 06:30:00,44.2,43.9,29.97,West,273,0.0,1.0,99,0.00,,,0.18,Wunderground v.1.15,2013-02-23 11:30:00,
2013-02-23 06:36:00,44.2,43.9,29.97,West,273,0.0,1.0,99,0.00,,,0.18,Wunderground v.1.15,2013-02-23 11:36:00,
2013-02-23 06:41:00,44.2,43.9,29.96,West,273,0.0,2.0,99,0.00,,,0.18,Wunderground v.1.15,2013-02-23 11:41:00,
2013-02-23 06:46:00,44.2,43.9,29.96,West,273,3.0,3.0,99,0.00,,,0.18,Wunderground v.1.15,2013-02-23 11:46:00,
2013-02-23 06:51:00,44.2,43.9,29.96,West,273,2.0,4.0,99,0.00,,,0.18,Wunderground v.1.15,2013-02-23 11:51:00,
2013-02-23 06:56:00,44.1,43.8,29.97,West,273,2.0,4.0,99,0.00,,,0.18,Wunderground v.1.15,2013-02-23 11:56:00,
2013-02-23 07:01:00,44.1,43.6,29.97,West,273,0.0,2.0,98,0.00,,,0.18,Wunderground v.1.15,2013-02-23 12:01:00,
2013-02-23 07:06:00,44.1,43.6,29.97,West,273,0.0,2.0,98,0.00,,,0.18,Wunderground v.1.15,2013-02-23 12:06:00,
2013-02-23 07:11:00,44.1,43.6,29.97,West,273,0.0,0.0,98,0.00,,,0.18,Wunderground v.1.15,2013-02-23 12:11:00,
2013-02-23 07:16:00,43.9,43.4,29.97,West,273,0.0,2.0,98,0.00,,,0.18,Wunderground v.1.15,2013-02-23 12:16:00,
2013-02-23 07:21:00,43.8,43.3,29.97,West,273,3.0,4.0,98,0.00,,,0.18,Wunderground v.1.15,2013-02-23 12:21:00,
2013-02-23 07:26:00,43.6,43.1,29.97,NW,313,5.0,7.0,98,0.00,,,0.18,Wunderground v.1.15,2013-02-23 12:26:00,
2013-02-23 07:31:00,43.6,43.1,29.97,NW,313,2.0,4.0,98,0.00,,,0.18,Wunderground v.1.15,2013-02-23 12:31:00,
2013-02-23 07:36:00,43.5,43.0,29.97,NNW,331,3.0,6.0,98,0.00,,,0.18,Wunderground v.1.15,2013-02-23 12:36:00,
2013-02-23 07:41:00,43.3,42.8,29.97,NNW,331,2.0,3.0,98,0.00,,,0.18,Wunderground v.1.15,2013-02-23 12:41:00,
2013-02-23 07:46:00,43.3,42.8,29.97,NNW,332,0.0,5.0,98,0.00,,,0.18,Wunderground v.1.15,2013-02-23 12:46:00,
2013-02-23 07:51:00,43.3,42.8,29.97,NNW,332,3.0,3.0,98,0.00,,,0.18,Wunderground v.1.15,2013-02-23 12:51:00,
2013-02-23 07:56:00,43.3,42.8,29.98,NNW,332,1.0,3.0,98,0.00,,,0.18,Wunderground v.1.15,2013-02-23 12:56:00,
2013-02-23 08:01:00,43.3,42.8,29.98,NNW,332,0.0,3.0,98,0.00,,,0.18,Wunderground v.1.15,2013-02-23 13:01:00,
2013-02-23 08:07:00,43.3,42.8,29.98,NNW,332,2.0,3.0,98,0.00,,,0.18,Wunderground v.1.15,2013-02-23 13:07:00,
2013-02-23 08:12:00,43.3,42.8,29.98,NNW,332,3.0,3.0,98,0.00,,,0.18,Wunderground v.1.15,2013-02-23 13:12:00,
2013-02-23 08:17:00,43.3,42.8,29.98,NNW,332,0.0,4.0,98,0.00,,,0.18,Wunderground v.1.15,2013-02-23 13:17:00,
2013-02-23 08:22:00,43.3,42.8,29.98,NNW,332,2.0,2.0,98,0.00,,,0.18,Wunderground v.1.15,2013-02-23 13:22:00,
2013-02-23 08:27:00,43.3,42.8,29.98,NNW,332,2.0,4.0,98,0.00,,,0.18,Wunderground v.1.15,2013-02-23 13:27:00,
2013-02-23 08:32:00,43.3,42.8,29.98,NNW,332,2.0,3.0,98,0.00,,,0.18,Wunderground v.1.15,2013-02-23 13:32:00,
2013-02-23 08:37:00,43.3,42.8,29.98,NNW,332,2.0,3.0,98,0.00,,,0.18,Wunderground v.1.15,2013-02-23 13:37:00,
2013-02-23 08:42:00,43.3,42.8,29.98,NW,326,1.0,4.0,98,0.00,,,0.18,Wunderground v.1.15,2013-02-23 13:42:00,
2013-02-23 08:47:00,43.3,42.8,29.98,NW,326,0.0,4.0,98,0.00,,,0.18,Wunderground v.1.15,2013-02-23 13:47:00,
2013-02-23 08:52:00,43.3,42.8,29.98,NW,326,0.0,3.0,98,0.00,,,0.18,Wunderground v.1.15,2013-02-23 13:52:00,
2013-02-23 08:57:00,43.2,42.7,29.98,NW,326,2.0,4.0,98,0.00,,,0.18,Wunderground v.1.15,2013-02-23 13:57:00,
2013-02-23 09:02:00,43.2,42.7,29.98,NW,326,0.0,2.0,98,0.00,,,0.18,Wunderground v.1.15,2013-02-23 14:02:00,
2013-02-23 09:07:00,43.2,42.7,29.98,NW,326,2.0,3.0,98,0.00,,,0.18,Wunderground v.1.15,2013-02-23 14:07:00,
2013-02-23 09:12:00,43.3,42.8,29.99,NW,326,2.0,4.0,98,0.00,,,0.18,Wunderground v.1.15,2013-02-23 14:12:00,
2013-02-23 09:17:00,43.3,42.8,29.99,NW,326,2.0,4.0,98,0.00,,,0.18,Wunderground v.1.15,2013-02-23 14:17:00,
2013-02-23 09:22:00,43.3,42.8,29.99,NNW,328,1.0,3.0,98,0.00,,,0.18,Wunderground v.1.15,2013-02-23 14:22:00,
2013-02-23 09:27:00,43.5,43.0,29.98,NNW,328,2.0,3.0,98,0.00,,,0.18,Wunderground v.1.15,2013-02-23 14:27:00,
2013-02-23 09:32:00,43.6,43.1,29.98,NNW,328,2.0,4.0,98,0.00,,,0.18,Wunderground v.1.15,2013-02-23 14:32:00,
2013-02-23 09:37:00,43.5,43.0,29.98,NNW,328,0.0,4.0,98,0.00,,,0.18,Wunderground v.1.15,2013-02-23 14:37:00,
2013-02-23 09:42:00,43.6,43.3,29.98,NNW,328,0.0,1.0,99,0.00,,,0.18,Wunderground v.1.15,2013-02-23 14:42:00,
2013-02-23 09:47:00,43.8,43.5,29.98,NNW,328,0.0,1.0,99,0.00,,,0.18,Wunderground v.1.15,2013-02-23 14:47:00,
2013-02-23 09:52:00,43.8,43.5,29.98,NW,323,2.0,6.0,99,0.00,,,0.18,Wunderground v.1.15,2013-02-23 14:52:00,
2013-02-23 09:57:00,43.9,43.6,29.97,NW,323,0.0,6.0,99,0.00,,,0.18,Wunderground v.1.15,2013-02-23 14:57:00,
2013-02-23 10:02:00,44.1,43.8,29.97,NW,323,0.0,1.0,99,0.00,,,0.18,Wunderground v.1.15,2013-02-23 15:02:00,
2013-02-23 10:07:00,44.2,43.9,29.97,NW,323,0.0,1.0,99,0.00,,,0.18,Wunderground v.1.15,2013-02-23 15:07:00,
2013-02-23 10:12:00,44.3,44.0,29.97,NW,323,0.0,0.0,99,0.00,,,0.18,Wunderground v.1.15,2013-02-23 15:12:00,
2013-02-23 10:17:00,44.6,44.3,29.97,NW,323,0.0,0.0,99,0.00,,,0.18,Wunderground v.1.15,2013-02-23 15:17:00,
2013-02-23 10:22:00,44.9,44.6,29.97,NW,323,2.0,2.0,99,0.00,,,0.18,Wunderground v.1.15,2013-02-23 15:22:00,
2013-02-23 10:27:00,44.9,44.6,29.97,NW,323,3.0,6.0,99,0.00,,,0.18,Wunderground v.1.15,2013-02-23 15:27:00,
2013-02-23 10:32:00,44.8,44.5,29.97,NW,323,0.0,4.0,99,0.00,,,0.18,Wunderground v.1.15,2013-02-23 15:32:00,
2013-02-23 10:37:00,45.1,44.8,29.97,NW,323,0.0,4.0,99,0.00,,,0.18,Wunderground v.1.15,2013-02-23 15:37:00,
2013-02-23 10:42:00,45.4,45.1,29.97,NW,323,1.0,4.0,99,0.00,,,0.18,Wunderground v.1.15,2013-02-23 15:42:00,
2013-02-23 10:47:00,45.5,45.0,29.97,NW,323,2.0,5.0,98,0.00,,,0.18,Wunderground v.1.15,2013-02-23 15:47:00,
2013-02-23 10:52:00,45.7,45.2,29.97,NW,323,0.0,2.0,98,0.00,,,0.18,Wunderground v.1.15,2013-02-23 15:52:00,
2013-02-23 10:57:00,46.0,45.2,29.97,NW,323,0.0,2.0,97,0.00,,,0.18,Wunderground v.1.15,2013-02-23 15:57:00,
2013-02-23 11:03:00,46.4,45.6,29.97,NW,325,2.0,2.0,97,0.00,,,0.18,Wunderground v.1.15,2013-02-23 16:03:00,
2013-02-23 11:08:00,47.0,45.9,29.97,NW,326,4.0,4.0,96,0.00,,,0.18,Wunderground v.1.15,2013-02-23 16:08:00,
2013-02-23 11:13:00,47.6,46.5,29.96,NW,326,0.0,3.0,96,0.00,,,0.18,Wunderground v.1.15,2013-02-23 16:13:00,
2013-02-23 11:18:00,47.6,45.7,29.96,NW,326,0.0,3.0,93,0.00,,,0.18,Wunderground v.1.15,2013-02-23 16:18:00,
2013-02-23 11:23:00,47.4,45.2,29.96,NW,326,0.0,0.0,92,0.00,,,0.18,Wunderground v.1.15,2013-02-23 16:23:00,
2013-02-23 11:28:00,48.0,45.5,29.96,NW,326,0.0,0.0,91,0.00,,,0.18,Wunderground v.1.15,2013-02-23 16:28:00,
2013-02-23 11:33:00,48.6,44.9,29.96,NW,326,0.0,3.0,87,0.00,,,0.18,Wunderground v.1.15,2013-02-23 16:33:00,
2013-02-23 11:38:00,48.9,45.5,29.96,NW,326,0.0,3.0,88,0.00,,,0.18,Wunderground v.1.15,2013-02-23 16:38:00,
2013-02-23 11:43:00,49.8,47.0,29.95,NW,326,0.0,3.0,90,0.00,,,0.18,Wunderground v.1.15,2013-02-23 16:43:00,
2013-02-23 11:48:00,49.9,46.5,29.95,NW,324,0.0,3.0,88,0.00,,,0.18,Wunderground v.1.15,2013-02-23 16:48:00,
2013-02-23 11:53:00,50.1,46.7,29.95,North,350,2.0,4.0,88,0.00,,,0.18,Wunderground v.1.15,2013-02-23 16:53:00,
2013-02-23 11:58:00,50.1,46.4,29.94,SE,143,6.0,7.0,87,0.00,,,0.18,Wunderground v.1.15,2013-02-23 16:58:00,
2013-02-23 12:03:00,50.2,46.8,29.94,ESE,119,4.0,7.0,88,0.00,,,0.18,Wunderground v.1.15,2013-02-23 17:03:00,
2013-02-23 12:08:00,50.4,46.4,29.94,ESE,121,4.0,7.0,86,0.00,,,0.18,Wunderground v.1.15,2013-02-23 17:08:00,
2013-02-23 12:13:00,50.7,47.3,29.94,ESE,122,4.0,6.0,88,0.00,,,0.18,Wunderground v.1.15,2013-02-23 17:13:00,
2013-02-23 12:18:00,50.7,46.0,29.94,ESE,117,4.0,6.0,84,0.00,,,0.18,Wunderground v.1.15,2013-02-23 17:18:00,
2013-02-23 12:23:00,49.8,45.5,29.94,ESE,117,4.0,6.0,85,0.00,,,0.18,Wunderground v.1.15,2013-02-23 17:23:00,
2013-02-23 12:28:00,49.9,46.2,29.94,ESE,122,4.0,6.0,87,0.00,,,0.18,Wunderground v.1.15,2013-02-23 17:28:00,
2013-02-23 12:33:00,51.0,46.6,29.94,ESE,114,3.0,5.0,85,0.00,,,0.18,Wunderground v.1.15,2013-02-23 17:33:00,
2013-02-23 12:38:00,51.1,46.4,29.94,SE,132,3.0,10.0,84,0.00,,,0.18,Wunderground v.1.15,2013-02-23 17:38:00,
2013-02-23 12:43:00,52.0,46.7,29.94,SE,139,5.0,8.0,82,0.00,,,0.18,Wunderground v.1.15,2013-02-23 17:43:00,
2013-02-23 12:48:00,51.7,47.0,29.94,SE,131,4.0,8.0,84,0.00,,,0.18,Wunderground v.1.15,2013-02-23 17:48:00,
2013-02-23 12:53:00,51.7,46.4,29.94,ESE,121,1.0,7.0,82,0.00,,,0.18,Wunderground v.1.15,2013-02-23 17:53:00,
2013-02-23 12:58:00,51.7,46.1,29.94,SE,136,6.0,9.0,81,0.00,,,0.18,Wunderground v.1.15,2013-02-23 17:58:00,
2013-02-23 13:04:00,52.6,46.9,29.94,SE,139,6.0,11.0,81,0.00,,,0.18,Wunderground v.1.15,2013-02-23 18:04:00,
2013-02-23 13:09:00,53.2,47.2,29.93,ESE,122,7.0,11.0,80,0.00,,,0.18,Wunderground v.1.15,2013-02-23 18:09:00,
2013-02-23 13:14:00,53.2,47.2,29.93,SE,138,2.0,10.0,80,0.00,,,0.18,Wunderground v.1.15,2013-02-23 18:14:00,
2013-02-23 13:19:00,53.3,46.6,29.93,SE,130,5.0,10.0,78,0.00,,,0.18,Wunderground v.1.15,2013-02-23 18:19:00,
2013-02-23 13:24:00,53.2,46.5,29.92,East,87,6.0,10.0,78,0.00,,,0.18,Wunderground v.1.15,2013-02-23 18:24:00,
2013-02-23 13:29:00,52.9,46.9,29.92,ESE,103,6.0,12.0,80,0.00,,,0.18,Wunderground v.1.15,2013-02-23 18:29:00,
2013-02-23 13:34:00,53.5,46.5,29.92,SE,134,7.0,9.0,77,0.00,,,0.18,Wunderground v.1.15,2013-02-23 18:34:00,
2013-02-23 13:39:00,53.3,46.3,29.91,SE,133,4.0,9.0,77,0.00,,,0.18,Wunderground v.1.15,2013-02-23 18:39:00,
2013-02-23 13:44:00,52.8,46.5,29.91,ESE,115,6.0,10.0,79,0.00,,,0.18,Wunderground v.1.15,2013-02-23 18:44:00,
2013-02-23 13:49:00,52.5,46.5,29.91,SSE,149,7.0,10.0,80,0.00,,,0.18,Wunderground v.1.15,2013-02-23 18:49:00,
2013-02-23 13:54:00,53.1,47.4,29.90,SE,127,7.0,10.0,81,0.00,,,0.18,Wunderground v.1.15,2013-02-23 18:54:00,
2013-02-23 13:59:00,53.2,46.9,29.90,ESE,115,4.0,13.0,79,0.00,,,0.18,Wunderground v.1.15,2013-02-23 18:59:00,
2013-02-23 14:04:00,53.1,46.4,29.90,SE,146,7.0,11.0,78,0.00,,,0.18,Wunderground v.1.15,2013-02-23 19:04:00,
2013-02-23 14:09:00,53.1,46.8,29.90,SE,137,6.0,12.0,79,0.00,,,0.18,Wunderground v.1.15,2013-02-23 19:09:00,
2013-02-23 14:14:00,53.1,46.1,29.90,SSE,151,10.0,13.0,77,0.00,,,0.18,Wunderground v.1.15,2013-02-23 19:14:00,
2013-02-23 14:19:00,53.3,47.3,29.90,SE,136,2.0,13.0,80,0.00,,,0.18,Wunderground v.1.15,2013-02-23 19:19:00,
2013-02-23 14:24:00,53.8,47.4,29.90,ESE,117,5.0,9.0,79,0.00,,,0.18,Wunderground v.1.15,2013-02-23 19:24:00,
2013-02-23 14:29:00,53.5,46.5,29.90,SSE,153,7.0,11.0,77,0.00,,,0.18,Wunderground v.1.15,2013-02-23 19:29:00,
2013-02-23 14:34:00,52.8,46.5,29.90,SE,134,3.0,12.0,79,0.00,,,0.18,Wunderground v.1.15,2013-02-23 19:34:00,
2013-02-23 14:40:00,52.8,46.5,29.90,SE,127,6.0,12.0,79,0.00,,,0.18,Wunderground v.1.15,2013-02-23 19:40:00,
2013-02-23 14:45:00,52.6,46.6,29.90,ESE,110,6.0,11.0,80,0.00,,,0.18,Wunderground v.1.15,2013-02-23 19:45:00,
2013-02-23 14:50:00,52.6,46.6,29.90,SE,135,7.0,7.0,80,0.00,,,0.18,Wunderground v.1.15,2013-02-23 19:50:00,
2013-02-23 14:55:00,52.8,47.1,29.90,SE,135,4.0,7.0,81,0.00,,,0.18,Wunderground v.1.15,2013-02-23 19:55:00,
2013-02-23 15:00:00,52.8,46.1,29.90,SE,136,5.0,5.0,78,0.00,,,0.18,Wunderground v.1.15,2013-02-23 20:00:00,
2013-02-23 15:05:00,52.5,46.5,29.90,SE,139,5.0,10.0,80,0.00,,,0.18,Wunderground v.1.15,2013-02-23 20:05:00,
2013-02-23 15:10:00,52.3,46.0,29.90,SE,139,0.0,4.0,79,0.00,,,0.18,Wunderground v.1.15,2013-02-23 20:10:00,
2013-02-23 15:15:00,52.3,46.3,29.90,SE,139,5.0,8.0,80,0.00,,,0.18,Wunderground v.1.15,2013-02-23 20:15:00,
2013-02-23 15:20:00,52.0,46.3,29.90,SE,136,3.0,4.0,81,0.00,,,0.18,Wunderground v.1.15,2013-02-23 20:20:00,
2013-02-23 15:25:00,51.9,46.6,29.90,SE,134,3.0,9.0,82,0.00,,,0.18,Wunderground v.1.15,2013-02-23 20:25:00,
2013-02-23 15:30:00,51.7,46.1,29.90,SE,138,7.0,7.0,81,0.00,,,0.18,Wunderground v.1.15,2013-02-23 20:30:00,
2013-02-23 15:35:00,51.6,46.0,29.90,SE,131,3.0,10.0,81,0.00,,,0.18,Wunderground v.1.15,2013-02-23 20:35:00,
2013-02-23 15:40:00,51.7,46.4,29.90,SE,131,3.0,4.0,82,0.00,,,0.18,Wunderground v.1.15,2013-02-23 20:40:00,
2013-02-23 15:45:00,51.6,46.0,29.90,SE,131,3.0,4.0,81,0.00,,,0.18,Wunderground v.1.15,2013-02-23 20:45:00,
2013-02-23 15:50:00,51.6,46.3,29.90,SE,131,3.0,3.0,82,0.00,,,0.18,Wunderground v.1.15,2013-02-23 20:50:00,
2013-02-23 15:55:00,51.6,46.3,29.90,SE,131,0.0,6.0,82,0.00,,,0.18,Wunderground v.1.15,2013-02-23 20:55:00,
2013-02-23 16:00:00,51.4,46.4,29.90,SE,131,0.0,2.0,83,0.00,,,0.18,Wunderground v.1.15,2013-02-23 21:00:00,
2013-02-23 16:05:00,51.7,46.7,29.90,SE,131,0.0,2.0,83,0.00,,,0.18,Wunderground v.1.15,2013-02-23 21:05:00,
2013-02-23 16:10:00,51.7,46.4,29.90,SE,131,0.0,1.0,82,0.00,,,0.18,Wunderground v.1.15,2013-02-23 21:10:00,
2013-02-23 16:15:00,51.6,46.3,29.90,SE,131,3.0,6.0,82,0.00,,,0.18,Wunderground v.1.15,2013-02-23 21:15:00,
2013-02-23 16:20:00,51.4,46.4,29.90,SE,131,0.0,2.0,83,0.00,,,0.18,Wunderground v.1.15,2013-02-23 21:20:00,
2013-02-23 16:25:00,51.3,46.0,29.90,SE,131,0.0,3.0,82,0.00,,,0.18,Wunderground v.1.15,2013-02-23 21:25:00,
2013-02-23 16:30:00,51.4,46.4,29.90,SE,131,2.0,2.0,83,0.00,,,0.18,Wunderground v.1.15,2013-02-23 21:30:00,
2013-02-23 16:35:00,51.4,46.4,29.90,SE,131,0.0,2.0,83,0.00,,,0.18,Wunderground v.1.15,2013-02-23 21:35:00,
2013-02-23 16:40:00,51.4,46.4,29.89,SE,131,0.0,0.0,83,0.00,,,0.18,Wunderground v.1.15,2013-02-23 21:40:00,
2013-02-23 16:45:00,51.4,46.4,29.89,SE,131,1.0,4.0,83,0.00,,,0.18,Wunderground v.1.15,2013-02-23 21:45:00,
2013-02-23 16:50:00,51.4,46.7,29.89,SE,131,0.0,1.0,84,0.00,,,0.18,Wunderground v.1.15,2013-02-23 21:50:00,
2013-02-23 16:55:00,51.4,46.7,29.89,SE,131,0.0,1.0,84,0.00,,,0.18,Wunderground v.1.15,2013-02-23 21:55:00,
2013-02-23 17:00:00,51.3,46.6,29.89,SE,131,0.0,0.0,84,0.00,,,0.18,Wunderground v.1.15,2013-02-23 22:00:00,
2013-02-23 17:05:00,51.0,46.3,29.89,SE,131,0.0,3.0,84,0.00,,,0.18,Wunderground v.1.15,2013-02-23 22:05:00,
2013-02-23 17:10:00,50.7,46.0,29.89,SE,131,0.0,0.0,84,0.00,,,0.18,Wunderground v.1.15,2013-02-23 22:10:00,
2013-02-23 17:15:00,50.7,46.4,29.89,SE,131,0.0,3.0,85,0.00,,,0.18,Wunderground v.1.15,2013-02-23 22:15:00,
2013-02-23 17:20:00,50.7,46.4,29.89,SE,131,0.0,0.0,85,0.00,,,0.18,Wunderground v.1.15,2013-02-23 22:20:00,
2013-02-23 17:25:00,50.7,46.4,29.88,SE,131,0.0,0.0,85,0.00,,,0.18,Wunderground v.1.15,2013-02-23 22:25:00,
2013-02-23 17:30:00,50.7,46.4,29.88,SE,131,0.0,0.0,85,0.00,,,0.18,Wunderground v.1.15,2013-02-23 22:30:00,
2013-02-23 17:35:00,50.7,46.4,29.88,SE,131,0.0,0.0,85,0.00,,,0.18,Wunderground v.1.15,2013-02-23 22:35:00,
2013-02-23 17:41:00,50.7,46.4,29.87,SE,131,0.0,0.0,85,0.00,,,0.18,Wunderground v.1.15,2013-02-23 22:41:00,
2013-02-23 17:46:00,50.7,46.4,29.87,SE,131,0.0,0.0,85,0.00,,,0.18,Wunderground v.1.15,2013-02-23 22:46:00,
2013-02-23 17:51:00,50.5,46.5,29.87,SE,131,0.0,0.0,86,0.00,,,0.18,Wunderground v.1.15,2013-02-23 22:51:00,
2013-02-23 17:56:00,50.5,46.5,29.87,SE,131,0.0,0.0,86,0.00,,,0.18,Wunderground v.1.15,2013-02-23 22:56:00,
2013-02-23 18:01:00,50.4,46.7,29.87,SE,131,0.0,0.0,87,0.00,,,0.18,Wunderground v.1.15,2013-02-23 23:01:00,
2013-02-23 18:06:00,50.4,46.7,29.87,SE,131,0.0,0.0,87,0.00,,,0.18,Wunderground v.1.15,2013-02-23 23:06:00,
2013-02-23 18:11:00,50.2,46.5,29.87,SE,131,0.0,0.0,87,0.00,,,0.18,Wunderground v.1.15,2013-02-23 23:11:00,
2013-02-23 18:16:00,50.1,46.4,29.87,SE,131,0.0,0.0,87,0.00,,,0.18,Wunderground v.1.15,2013-02-23 23:16:00,
2013-02-23 18:21:00,49.8,46.4,29.87,SE,131,0.0,0.0,88,0.00,,,0.18,Wunderground v.1.15,2013-02-23 23:21:00,
2013-02-23 18:26:00,49.6,46.5,29.87,SE,131,0.0,0.0,89,0.00,,,0.18,Wunderground v.1.15,2013-02-23 23:26:00,
2013-02-23 18:31:00,49.4,46.3,29.87,SE,131,0.0,0.0,89,0.00,,,0.18,Wunderground v.1.15,2013-02-23 23:31:00,
2013-02-23 18:36:00,49.1,46.3,29.87,SE,131,0.0,0.0,90,0.00,,,0.18,Wunderground v.1.15,2013-02-23 23:36:00,
2013-02-23 18:41:00,48.8,46.0,29.88,SE,131,1.0,2.0,90,0.00,,,0.18,Wunderground v.1.15,2013-02-23 23:41:00,
2013-02-23 18:46:00,48.8,45.4,29.88,SE,131,0.0,3.0,88,0.00,,,0.18,Wunderground v.1.15,2013-02-23 23:46:00,
2013-02-23 18:51:00,48.6,44.3,29.88,SE,131,1.0,3.0,85,0.00,,,0.18,Wunderground v.1.15,2013-02-23 23:51:00,
2013-02-23 18:56:00,48.6,43.7,29.88,SE,131,2.0,4.0,83,0.00,,,0.18,Wunderground v.1.15,2013-02-23 23:56:00,
2013-02-23 19:02:00,48.6,42.7,29.88,SE,131,3.0,5.0,80,0.00,,,0.18,Wunderground v.1.15,2013-02-24 00:02:00,
2013-02-23 19:07:00,48.8,42.6,29.88,SE,131,1.0,5.0,79,0.00,,,0.18,Wunderground v.1.15,2013-02-24 00:07:00,
2013-02-23 19:12:00,48.8,42.2,29.89,SE,131,3.0,3.0,78,0.00,,,0.18,Wunderground v.1.15,2013-02-24 00:12:00,
2013-02-23 19:17:00,48.6,41.7,29.89,SE,131,1.0,3.0,77,0.00,,,0.18,Wunderground v.1.15,2013-02-24 00:17:00,
2013-02-23 19:22:00,48.5,42.0,29.89,SE,131,0.0,2.0,78,0.00,,,0.18,Wunderground v.1.15,2013-02-24 00:22:00,
2013-02-23 19:27:00,48.2,41.7,29.89,SE,131,0.0,2.0,78,0.00,,,0.18,Wunderground v.1.15,2013-02-24 00:27:00,
2013-02-23 19:32:00,47.9,41.0,29.89,SE,131,0.0,0.0,77,0.00,,,0.18,Wunderground v.1.15,2013-02-24 00:32:00,
2013-02-23 19:37:00,47.6,40.7,29.89,SE,131,0.0,0.0,77,0.00,,,0.18,Wunderground v.1.15,2013-02-24 00:37:00,
2013-02-23 19:42:00,47.3,39.8,29.90,SE,131,3.0,3.0,75,0.00,,,0.18,Wunderground v.1.15,2013-02-24 00:42:00,
2013-02-23 19:47:00,47.0,40.2,29.90,SE,131,2.0,4.0,77,0.00,,,0.18,Wunderground v.1.15,2013-02-24 00:47:00,
2013-02-23 19:52:00,46.7,38.9,29.90,SE,131,2.0,3.0,74,0.00,,,0.18,Wunderground v.1.15,2013-02-24 00:52:00,
2013-02-23 19:57:00,46.7,38.9,29.90,SE,131,2.0,4.0,74,0.00,,,0.18,Wunderground v.1.15,2013-02-24 00:57:00,
2013-02-23 20:02:00,46.7,38.5,29.90,SE,131,0.0,4.0,73,0.00,,,0.18,Wunderground v.1.15,2013-02-24 01:02:00,
2013-02-23 20:07:00,46.5,38.3,29.90,SE,131,1.0,4.0,73,0.00,,,0.18,Wunderground v.1.15,2013-02-24 01:07:00,
2013-02-23 20:12:00,46.4,37.9,29.91,SE,131,3.0,4.0,72,0.00,,,0.18,Wunderground v.1.15,2013-02-24 01:12:00,
2013-02-23 20:17:00,46.5,38.0,29.91,NW,325,7.0,8.0,72,0.00,,,0.18,Wunderground v.1.15,2013-02-24 01:17:00,
2013-02-23 20:22:00,46.7,38.1,29.91,NW,321,4.0,5.0,72,0.00,,,0.18,Wunderground v.1.15,2013-02-24 01:22:00,
2013-02-23 20:27:00,46.5,38.0,29.91,NW,323,4.0,7.0,72,0.00,,,0.18,Wunderground v.1.15,2013-02-24 01:27:00,
2013-02-23 20:32:00,46.5,38.0,29.91,NNW,333,4.0,6.0,72,0.00,,,0.18,Wunderground v.1.15,2013-02-24 01:32:00,
2013-02-23 20:37:00,46.7,38.1,29.91,NNW,328,4.0,8.0,72,0.00,,,0.18,Wunderground v.1.15,2013-02-24 01:37:00,
2013-02-23 20:42:00,46.8,38.2,29.92,WNW,290,3.0,12.0,72,0.00,,,0.18,Wunderground v.1.15,2013-02-24 01:42:00,
2013-02-23 20:47:00,46.7,38.5,29.92,WNW,297,4.0,12.0,73,0.00,,,0.18,Wunderground v.1.15,2013-02-24 01:47:00,
2013-02-23 20:52:00,46.5,38.3,29.92,NW,320,3.0,9.0,73,0.00,,,0.18,Wunderground v.1.15,2013-02-24 01:52:00,
2013-02-23 20:57:00,46.4,38.6,29.92,NW,316,4.0,9.0,74,0.00,,,0.18,Wunderground v.1.15,2013-02-24 01:57:00,
2013-02-23 21:03:00,46.5,38.3,29.92,NW,325,5.0,7.0,73,0.00,,,0.18,Wunderground v.1.15,2013-02-24 02:03:00,
2013-02-23 21:08:00,46.5,38.3,29.92,NW,306,5.0,10.0,73,0.00,,,0.18,Wunderground v.1.15,2013-02-24 02:08:00,
2013-02-23 21:13:00,46.5,38.0,29.93,NW,316,4.0,7.0,72,0.00,,,0.18,Wunderground v.1.15,2013-02-24 02:13:00,
2013-02-23 21:18:00,46.4,37.9,29.93,NW,307,4.0,9.0,72,0.00,,,0.18,Wunderground v.1.15,2013-02-24 02:18:00,
2013-02-23 21:23:00,46.2,37.7,29.93,NW,317,4.0,10.0,72,0.00,,,0.18,Wunderground v.1.15,2013-02-24 02:23:00,
2013-02-23 21:28:00,46.0,37.8,29.93,NW,319,4.0,10.0,73,0.00,,,0.18,Wunderground v.1.15,2013-02-24 02:28:00,
2013-02-23 21:33:00,45.8,37.6,29.93,NW,313,4.0,5.0,73,0.00,,,0.18,Wunderground v.1.15,2013-02-24 02:33:00,
2013-02-23 21:38:00,45.5,37.3,29.93,WNW,297,3.0,8.0,73,0.00,,,0.18,Wunderground v.1.15,2013-02-24 02:38:00,
2013-02-23 21:43:00,45.4,36.9,29.94,WNW,297,3.0,4.0,72,0.00,,,0.18,Wunderground v.1.15,2013-02-24 02:43:00,
2013-02-23 21:48:00,45.2,36.7,29.94,NW,324,5.0,6.0,72,0.00,,,0.18,Wunderground v.1.15,2013-02-24 02:48:00,
2013-02-23 21:53:00,44.9,36.8,29.94,NW,324,0.0,5.0,73,0.00,,,0.18,Wunderground v.1.15,2013-02-24 02:53:00,
2013-02-23 21:58:00,44.6,36.1,29.95,NW,324,0.0,5.0,72,0.00,,,0.18,Wunderground v.1.15,2013-02-24 02:58:00,
2013-02-23 22:03:00,44.3,35.8,29.95,NW,324,1.0,4.0,72,0.00,,,0.18,Wunderground v.1.15,2013-02-24 03:03:00,
2013-02-23 22:08:00,44.1,36.0,29.95,NW,324,3.0,4.0,73,0.00,,,0.18,Wunderground v.1.15,2013-02-24 03:08:00,
2013-02-23 22:13:00,43.6,35.5,29.96,NW,324,2.0,6.0,73,0.00,,,0.18,Wunderground v.1.15,2013-02-24 03:13:00,
2013-02-23 22:18:00,43.2,35.5,29.96,NW,324,1.0,6.0,74,0.00,,,0.18,Wunderground v.1.15,2013-02-24 03:18:00,
2013-02-23 22:23:00,43.1,35.4,29.96,NW,309,1.0,10.0,74,0.00,,,0.18,Wunderground v.1.15,2013-02-24 03:23:00,
2013-02-23 22:28:00,42.9,34.8,29.96,NW,314,0.0,10.0,73,0.00,,,0.18,Wunderground v.1.15,2013-02-24 03:28:00,
2013-02-23 22:33:00,42.6,34.9,29.96,NW,314,0.0,3.0,74,0.00,,,0.18,Wunderground v.1.15,2013-02-24 03:33:00,
2013-02-23 22:38:00,42.5,34.8,29.96,NW,314,0.0,3.0,74,0.00,,,0.18,Wunderground v.1.15,2013-02-24 03:38:00,
2013-02-23 22:43:00,42.1,34.4,29.95,NW,314,0.0,0.0,74,0.00,,,0.18,Wunderground v.1.15,2013-02-24 03:43:00,
2013-02-23 22:48:00,41.8,34.1,29.95,NW,314,0.0,0.0,74,0.00,,,0.18,Wunderground v.1.15,2013-02-24 03:48:00,
2013-02-23 22:53:00,41.5,34.2,29.95,NW,314,0.0,0.0,75,0.00,,,0.18,Wunderground v.1.15,2013-02-24 03:53:00,
2013-02-23 22:58:00,41.3,34.0,29.95,NW,314,0.0,0.0,75,0.00,,,0.18,Wunderground v.1.15,2013-02-24 03:58:00,
2013-02-23 23:03:00,41.2,33.9,29.95,NW,314,0.0,0.0,75,0.00,,,0.18,Wunderground v.1.15,2013-02-24 04:03:00,
2013-02-23 23:08:00,41.2,33.5,29.95,NW,314,0.0,0.0,74,0.00,,,0.18,Wunderground v.1.15,2013-02-24 04:08:00,
2013-02-23 23:13:00,41.1,33.4,29.95,NW,314,0.0,0.0,74,0.00,,,0.18,Wunderground v.1.15,2013-02-24 04:13:00,
2013-02-23 23:18:00,40.9,33.2,29.95,NW,314,0.0,0.0,74,0.00,,,0.18,Wunderground v.1.15,2013-02-24 04:18:00,
2013-02-23 23:23:00,40.5,33.5,29.96,NW,314,0.0,0.0,76,0.00,,,0.18,Wunderground v.1.15,2013-02-24 04:23:00,
2013-02-23 23:28:00,40.3,33.3,29.96,NW,314,0.0,0.0,76,0.00,,,0.18,Wunderground v.1.15,2013-02-24 04:28:00,
2013-02-23 23:33:00,40.1,33.1,29.96,NW,314,0.0,0.0,76,0.00,,,0.18,Wunderground v.1.15,2013-02-24 04:33:00,
2013-02-23 23:39:00,40.1,33.1,29.95,NW,314,0.0,4.0,76,0.00,,,0.18,Wunderground v.1.15,2013-02-24 04:39:00,
2013-02-23 23:44:00,39.9,32.9,29.95,NW,323,3.0,4.0,76,0.00,,,0.18,Wunderground v.1.15,2013-02-24 04:44:00,
2013-02-23 23:49:00,39.9,32.9,29.95,NW,323,0.0,4.0,76,0.00,,,0.18,Wunderground v.1.15,2013-02-24 04:49:00,
2013-02-23 23:54:00,39.8,32.8,29.95,NW,323,0.0,1.0,76,0.00,,,0.18,Wunderground v.1.15,2013-02-24 04:54:00,
2013-02-23 23:59:00,39.6,32.7,29.95,NW,323,0.0,1.0,76,0.00,,,0.18,Wunderground v.1.15,2013-02-24 04:59:00,